sensor_id;sensor_type;location;lat;lon;timestamp;P1;durP1;ratioP1;P2;durP2;ratioP2
22138;SDS011;25815;52.582;13.408;2023-02-03T00:01:17;11.00;;;2.83;;
22138;SDS011;25815;52.582;13.408;2023-02-03T00:03:43;14.38;;;3.50;;
22138;SDS011;25815;52.582;13.408;2023-02-03T00:06:08;11.40;;;3.83;;
22138;SDS011;25815;52.582;13.408;2023-02-03T00:08:35;8.55;;;3.35;;
22138;SDS011;25815;52.582;13.408;2023-02-03T00:11:02;11.60;;;3.10;;
22138;SDS011;25815;52.582;13.408;2023-02-03T00:13:28;13.35;;;3.85;;
22138;SDS011;25815;52.582;13.408;2023-02-03T00:15:54;12.70;;;3.42;;
22138;SDS011;25815;52.582;13.408;2023-02-03T00:18:20;7.68;;;2.80;;
22138;SDS011;25815;52.582;13.408;2023-02-03T00:20:46;15.93;;;3.92;;
22138;SDS011;25815;52.582;13.408;2023-02-03T00:23:12;11.90;;;3.75;;
22138;SDS011;25815;52.582;13.408;2023-02-03T00:25:38;7.22;;;2.90;;
22138;SDS011;25815;52.582;13.408;2023-02-03T00:28:04;8.05;;;2.70;;
22138;SDS011;25815;52.582;13.408;2023-02-03T00:30:32;8.70;;;2.83;;
22138;SDS011;25815;52.582;13.408;2023-02-03T00:32:59;8.07;;;2.60;;
22138;SDS011;25815;52.582;13.408;2023-02-03T00:35:25;11.45;;;2.55;;
22138;SDS011;25815;52.582;13.408;2023-02-03T00:37:55;10.85;;;2.40;;
22138;SDS011;25815;52.582;13.408;2023-02-03T00:40:22;11.70;;;3.38;;
22138;SDS011;25815;52.582;13.408;2023-02-03T00:42:48;15.20;;;2.92;;
22138;SDS011;25815;52.582;13.408;2023-02-03T00:45:14;10.25;;;2.50;;
22138;SDS011;25815;52.582;13.408;2023-02-03T00:47:40;8.60;;;2.55;;
22138;SDS011;25815;52.582;13.408;2023-02-03T00:50:06;10.65;;;2.42;;
22138;SDS011;25815;52.582;13.408;2023-02-03T00:52:33;11.77;;;2.53;;
22138;SDS011;25815;52.582;13.408;2023-02-03T00:54:58;7.25;;;2.28;;
22138;SDS011;25815;52.582;13.408;2023-02-03T00:57:24;7.55;;;2.28;;
22138;SDS011;25815;52.582;13.408;2023-02-03T00:59:50;9.63;;;2.67;;
22138;SDS011;25815;52.582;13.408;2023-02-03T01:02:16;11.00;;;2.42;;
22138;SDS011;25815;52.582;13.408;2023-02-03T01:04:43;9.40;;;2.40;;
22138;SDS011;25815;52.582;13.408;2023-02-03T01:07:08;7.75;;;2.50;;
22138;SDS011;25815;52.582;13.408;2023-02-03T01:09:35;14.60;;;2.85;;
22138;SDS011;25815;52.582;13.408;2023-02-03T01:12:02;9.93;;;2.35;;
22138;SDS011;25815;52.582;13.408;2023-02-03T01:14:28;10.35;;;3.03;;
22138;SDS011;25815;52.582;13.408;2023-02-03T01:16:54;10.35;;;2.30;;
22138;SDS011;25815;52.582;13.408;2023-02-03T01:19:20;13.63;;;3.50;;
22138;SDS011;25815;52.582;13.408;2023-02-03T01:21:46;10.57;;;3.15;;
22138;SDS011;25815;52.582;13.408;2023-02-03T01:24:11;11.77;;;3.08;;
22138;SDS011;25815;52.582;13.408;2023-02-03T01:26:39;10.43;;;2.85;;
22138;SDS011;25815;52.582;13.408;2023-02-03T01:29:05;9.93;;;3.35;;
22138;SDS011;25815;52.582;13.408;2023-02-03T01:31:32;10.38;;;3.38;;
22138;SDS011;25815;52.582;13.408;2023-02-03T01:34:03;11.40;;;3.60;;
22138;SDS011;25815;52.582;13.408;2023-02-03T01:36:29;9.57;;;3.10;;
22138;SDS011;25815;52.582;13.408;2023-02-03T01:38:56;10.85;;;3.55;;
22138;SDS011;25815;52.582;13.408;2023-02-03T01:41:23;7.35;;;3.28;;
22138;SDS011;25815;52.582;13.408;2023-02-03T01:43:51;8.52;;;2.90;;
22138;SDS011;25815;52.582;13.408;2023-02-03T01:48:57;7.30;;;2.85;;
22138;SDS011;25815;52.582;13.408;2023-02-03T01:51:25;8.70;;;3.10;;
22138;SDS011;25815;52.582;13.408;2023-02-03T01:53:51;9.68;;;3.45;;
22138;SDS011;25815;52.582;13.408;2023-02-03T01:56:17;9.48;;;3.83;;
22138;SDS011;25815;52.582;13.408;2023-02-03T01:58:43;7.65;;;3.03;;
22138;SDS011;25815;52.582;13.408;2023-02-03T02:01:10;8.65;;;2.85;;
22138;SDS011;25815;52.582;13.408;2023-02-03T02:03:47;6.90;;;3.45;;
22138;SDS011;25815;52.582;13.408;2023-02-03T02:06:15;9.38;;;3.38;;
22138;SDS011;25815;52.582;13.408;2023-02-03T02:08:41;8.15;;;3.22;;
22138;SDS011;25815;52.582;13.408;2023-02-03T02:11:08;9.15;;;3.63;;
22138;SDS011;25815;52.582;13.408;2023-02-03T02:13:34;11.95;;;4.05;;
22138;SDS011;25815;52.582;13.408;2023-02-03T02:16:09;8.70;;;3.75;;
22138;SDS011;25815;52.582;13.408;2023-02-03T02:18:56;5.40;;;3.60;;
22138;SDS011;25815;52.582;13.408;2023-02-03T02:34:14;5.97;;;3.38;;
22138;SDS011;25815;52.582;13.408;2023-02-03T02:39:09;5.88;;;2.88;;
22138;SDS011;25815;52.582;13.408;2023-02-03T02:44:34;12.10;;;4.00;;
22138;SDS011;25815;52.582;13.408;2023-02-03T02:47:09;5.80;;;3.50;;
22138;SDS011;25815;52.582;13.408;2023-02-03T02:49:49;6.65;;;3.65;;
22138;SDS011;25815;52.582;13.408;2023-02-03T02:52:16;7.00;;;3.10;;
22138;SDS011;25815;52.582;13.408;2023-02-03T02:54:44;5.95;;;2.83;;
22138;SDS011;25815;52.582;13.408;2023-02-03T02:57:11;5.90;;;3.40;;
22138;SDS011;25815;52.582;13.408;2023-02-03T02:59:38;7.10;;;3.58;;
22138;SDS011;25815;52.582;13.408;2023-02-03T03:02:04;4.57;;;3.20;;
22138;SDS011;25815;52.582;13.408;2023-02-03T03:04:30;6.65;;;3.60;;
22138;SDS011;25815;52.582;13.408;2023-02-03T03:06:58;7.30;;;4.10;;
22138;SDS011;25815;52.582;13.408;2023-02-03T03:09:26;7.07;;;3.70;;
22138;SDS011;25815;52.582;13.408;2023-02-03T03:12:03;4.63;;;3.30;;
22138;SDS011;25815;52.582;13.408;2023-02-03T03:14:30;7.85;;;3.60;;
22138;SDS011;25815;52.582;13.408;2023-02-03T03:16:58;6.43;;;3.53;;
22138;SDS011;25815;52.582;13.408;2023-02-03T03:19:26;8.02;;;3.70;;
22138;SDS011;25815;52.582;13.408;2023-02-03T03:21:55;5.85;;;3.47;;
22138;SDS011;25815;52.582;13.408;2023-02-03T03:24:27;5.80;;;3.53;;
22138;SDS011;25815;52.582;13.408;2023-02-03T03:27:12;6.95;;;3.53;;
22138;SDS011;25815;52.582;13.408;2023-02-03T03:29:39;6.20;;;3.00;;
22138;SDS011;25815;52.582;13.408;2023-02-03T03:32:06;5.55;;;2.42;;
22138;SDS011;25815;52.582;13.408;2023-02-03T03:34:33;5.25;;;3.05;;
22138;SDS011;25815;52.582;13.408;2023-02-03T03:37:10;5.38;;;2.90;;
22138;SDS011;25815;52.582;13.408;2023-02-03T03:39:41;4.90;;;2.80;;
22138;SDS011;25815;52.582;13.408;2023-02-03T03:42:12;4.88;;;2.80;;
22138;SDS011;25815;52.582;13.408;2023-02-03T03:44:42;5.00;;;2.72;;
22138;SDS011;25815;52.582;13.408;2023-02-03T03:47:11;3.60;;;2.60;;
22138;SDS011;25815;52.582;13.408;2023-02-03T03:49:39;2.90;;;2.38;;
22138;SDS011;25815;52.582;13.408;2023-02-03T03:52:06;3.08;;;2.78;;
22138;SDS011;25815;52.582;13.408;2023-02-03T03:54:33;3.78;;;3.00;;
22138;SDS011;25815;52.582;13.408;2023-02-03T03:57:04;4.20;;;2.67;;
22138;SDS011;25815;52.582;13.408;2023-02-03T03:59:31;3.03;;;2.70;;
22138;SDS011;25815;52.582;13.408;2023-02-03T04:01:58;3.72;;;2.80;;
22138;SDS011;25815;52.582;13.408;2023-02-03T04:04:28;3.63;;;3.13;;
22138;SDS011;25815;52.582;13.408;2023-02-03T04:06:54;3.17;;;2.70;;
22138;SDS011;25815;52.582;13.408;2023-02-03T04:09:20;5.15;;;3.70;;
22138;SDS011;25815;52.582;13.408;2023-02-03T04:11:46;4.53;;;3.38;;
22138;SDS011;25815;52.582;13.408;2023-02-03T04:14:28;5.30;;;3.10;;
22138;SDS011;25815;52.582;13.408;2023-02-03T04:16:55;3.58;;;2.78;;
22138;SDS011;25815;52.582;13.408;2023-02-03T04:19:21;5.40;;;3.22;;
22138;SDS011;25815;52.582;13.408;2023-02-03T04:21:47;4.80;;;3.03;;
22138;SDS011;25815;52.582;13.408;2023-02-03T04:24:13;5.00;;;3.60;;
22138;SDS011;25815;52.582;13.408;2023-02-03T04:26:39;3.97;;;3.22;;
22138;SDS011;25815;52.582;13.408;2023-02-03T04:29:05;5.20;;;3.80;;
22138;SDS011;25815;52.582;13.408;2023-02-03T04:31:32;5.20;;;4.03;;
22138;SDS011;25815;52.582;13.408;2023-02-03T04:33:58;5.28;;;3.78;;
22138;SDS011;25815;52.582;13.408;2023-02-03T04:36:24;5.63;;;4.53;;
22138;SDS011;25815;52.582;13.408;2023-02-03T04:38:50;6.45;;;5.00;;
22138;SDS011;25815;52.582;13.408;2023-02-03T04:41:16;7.95;;;5.75;;
22138;SDS011;25815;52.582;13.408;2023-02-03T04:43:42;9.43;;;6.38;;
22138;SDS011;25815;52.582;13.408;2023-02-03T04:46:08;9.43;;;6.90;;
22138;SDS011;25815;52.582;13.408;2023-02-03T04:48:34;11.13;;;7.65;;
22138;SDS011;25815;52.582;13.408;2023-02-03T04:51:03;12.48;;;7.90;;
22138;SDS011;25815;52.582;13.408;2023-02-03T04:55:55;12.75;;;8.82;;
22138;SDS011;25815;52.582;13.408;2023-02-03T04:58:21;13.88;;;9.55;;
22138;SDS011;25815;52.582;13.408;2023-02-03T05:00:47;12.98;;;8.50;;
22138;SDS011;25815;52.582;13.408;2023-02-03T05:03:13;15.18;;;10.20;;
22138;SDS011;25815;52.582;13.408;2023-02-03T05:05:39;13.60;;;8.65;;
22138;SDS011;25815;52.582;13.408;2023-02-03T05:08:05;16.08;;;9.88;;
22138;SDS011;25815;52.582;13.408;2023-02-03T05:10:31;16.92;;;10.38;;
22138;SDS011;25815;52.582;13.408;2023-02-03T05:12:57;18.23;;;10.32;;
22138;SDS011;25815;52.582;13.408;2023-02-03T05:15:23;18.48;;;12.10;;
22138;SDS011;25815;52.582;13.408;2023-02-03T05:17:52;22.38;;;13.25;;
22138;SDS011;25815;52.582;13.408;2023-02-03T05:20:18;20.67;;;12.68;;
22138;SDS011;25815;52.582;13.408;2023-02-03T05:22:44;22.98;;;14.20;;
22138;SDS011;25815;52.582;13.408;2023-02-03T05:25:10;24.13;;;15.00;;
22138;SDS011;25815;52.582;13.408;2023-02-03T05:27:37;25.98;;;15.23;;
22138;SDS011;25815;52.582;13.408;2023-02-03T05:30:03;27.30;;;15.40;;
22138;SDS011;25815;52.582;13.408;2023-02-03T05:32:30;29.95;;;16.17;;
22138;SDS011;25815;52.582;13.408;2023-02-03T05:34:55;28.20;;;15.25;;
22138;SDS011;25815;52.582;13.408;2023-02-03T05:37:21;30.98;;;16.75;;
22138;SDS011;25815;52.582;13.408;2023-02-03T05:39:47;33.55;;;17.50;;
22138;SDS011;25815;52.582;13.408;2023-02-03T05:42:13;32.20;;;16.10;;
22138;SDS011;25815;52.582;13.408;2023-02-03T05:44:39;33.00;;;18.45;;
22138;SDS011;25815;52.582;13.408;2023-02-03T05:47:05;34.75;;;18.60;;
22138;SDS011;25815;52.582;13.408;2023-02-03T05:49:31;33.25;;;19.52;;
22138;SDS011;25815;52.582;13.408;2023-02-03T05:51:57;37.70;;;19.05;;
22138;SDS011;25815;52.582;13.408;2023-02-03T05:54:23;40.03;;;20.42;;
22138;SDS011;25815;52.582;13.408;2023-02-03T05:56:49;39.10;;;20.00;;
22138;SDS011;25815;52.582;13.408;2023-02-03T05:59:15;39.53;;;19.85;;
22138;SDS011;25815;52.582;13.408;2023-02-03T06:01:41;35.95;;;19.60;;
22138;SDS011;25815;52.582;13.408;2023-02-03T06:04:07;37.83;;;18.63;;
22138;SDS011;25815;52.582;13.408;2023-02-03T06:06:33;37.28;;;20.05;;
22138;SDS011;25815;52.582;13.408;2023-02-03T06:09:00;41.47;;;21.98;;
22138;SDS011;25815;52.582;13.408;2023-02-03T06:11:26;41.38;;;21.70;;
22138;SDS011;25815;52.582;13.408;2023-02-03T06:13:52;46.28;;;22.00;;
22138;SDS011;25815;52.582;13.408;2023-02-03T06:16:19;39.13;;;19.05;;
22138;SDS011;25815;52.582;13.408;2023-02-03T06:18:46;41.22;;;20.90;;
22138;SDS011;25815;52.582;13.408;2023-02-03T06:21:12;39.22;;;19.83;;
22138;SDS011;25815;52.582;13.408;2023-02-03T06:23:38;39.78;;;19.90;;
22138;SDS011;25815;52.582;13.408;2023-02-03T06:26:04;35.58;;;18.45;;
22138;SDS011;25815;52.582;13.408;2023-02-03T06:28:30;42.03;;;22.52;;
22138;SDS011;25815;52.582;13.408;2023-02-03T06:30:57;37.92;;;21.23;;
22138;SDS011;25815;52.582;13.408;2023-02-03T06:33:23;35.78;;;19.77;;
22138;SDS011;25815;52.582;13.408;2023-02-03T06:35:49;39.80;;;20.75;;
22138;SDS011;25815;52.582;13.408;2023-02-03T06:38:15;36.10;;;19.33;;
22138;SDS011;25815;52.582;13.408;2023-02-03T06:40:41;43.88;;;22.27;;
22138;SDS011;25815;52.582;13.408;2023-02-03T06:43:07;41.53;;;22.30;;
22138;SDS011;25815;52.582;13.408;2023-02-03T06:45:33;38.88;;;19.73;;
22138;SDS011;25815;52.582;13.408;2023-02-03T06:47:58;41.10;;;21.27;;
22138;SDS011;25815;52.582;13.408;2023-02-03T06:50:24;38.78;;;20.60;;
22138;SDS011;25815;52.582;13.408;2023-02-03T06:52:50;34.78;;;19.60;;
22138;SDS011;25815;52.582;13.408;2023-02-03T06:55:16;36.42;;;19.30;;
22138;SDS011;25815;52.582;13.408;2023-02-03T06:57:46;40.03;;;21.70;;
22138;SDS011;25815;52.582;13.408;2023-02-03T07:00:12;39.30;;;22.38;;
22138;SDS011;25815;52.582;13.408;2023-02-03T07:02:39;39.00;;;21.80;;
22138;SDS011;25815;52.582;13.408;2023-02-03T07:05:05;33.92;;;19.27;;
22138;SDS011;25815;52.582;13.408;2023-02-03T07:07:31;34.50;;;20.80;;
22138;SDS011;25815;52.582;13.408;2023-02-03T07:09:58;39.17;;;18.92;;
22138;SDS011;25815;52.582;13.408;2023-02-03T07:12:24;38.13;;;21.13;;
22138;SDS011;25815;52.582;13.408;2023-02-03T07:14:50;38.65;;;18.60;;
22138;SDS011;25815;52.582;13.408;2023-02-03T07:17:16;38.38;;;17.80;;
22138;SDS011;25815;52.582;13.408;2023-02-03T07:19:41;33.90;;;19.35;;
22138;SDS011;25815;52.582;13.408;2023-02-03T07:22:09;31.67;;;19.45;;
22138;SDS011;25815;52.582;13.408;2023-02-03T07:24:35;40.47;;;19.52;;
22138;SDS011;25815;52.582;13.408;2023-02-03T07:27:01;34.90;;;17.35;;
22138;SDS011;25815;52.582;13.408;2023-02-03T07:29:27;29.70;;;17.08;;
22138;SDS011;25815;52.582;13.408;2023-02-03T07:31:53;32.35;;;20.08;;
22138;SDS011;25815;52.582;13.408;2023-02-03T07:34:18;33.25;;;19.23;;
22138;SDS011;25815;52.582;13.408;2023-02-03T07:36:44;32.35;;;20.17;;
22138;SDS011;25815;52.582;13.408;2023-02-03T07:39:10;33.33;;;15.68;;
22138;SDS011;25815;52.582;13.408;2023-02-03T07:41:36;30.02;;;17.38;;
22138;SDS011;25815;52.582;13.408;2023-02-03T07:44:02;31.80;;;16.92;;
22138;SDS011;25815;52.582;13.408;2023-02-03T07:46:28;30.48;;;18.65;;
22138;SDS011;25815;52.582;13.408;2023-02-03T07:48:54;29.88;;;16.15;;
22138;SDS011;25815;52.582;13.408;2023-02-03T07:51:20;30.58;;;17.40;;
22138;SDS011;25815;52.582;13.408;2023-02-03T07:53:46;28.77;;;16.63;;
22138;SDS011;25815;52.582;13.408;2023-02-03T07:56:12;27.75;;;15.43;;
22138;SDS011;25815;52.582;13.408;2023-02-03T07:58:38;30.60;;;16.13;;
22138;SDS011;25815;52.582;13.408;2023-02-03T08:01:13;27.83;;;14.02;;
22138;SDS011;25815;52.582;13.408;2023-02-03T08:03:40;23.25;;;15.20;;
22138;SDS011;25815;52.582;13.408;2023-02-03T08:06:06;22.40;;;14.85;;
22138;SDS011;25815;52.582;13.408;2023-02-03T08:08:32;25.38;;;15.70;;
22138;SDS011;25815;52.582;13.408;2023-02-03T08:10:58;22.98;;;13.50;;
22138;SDS011;25815;52.582;13.408;2023-02-03T08:13:24;20.42;;;12.00;;
22138;SDS011;25815;52.582;13.408;2023-02-03T08:15:50;24.27;;;14.10;;
22138;SDS011;25815;52.582;13.408;2023-02-03T08:18:16;20.30;;;13.95;;
22138;SDS011;25815;52.582;13.408;2023-02-03T08:20:42;19.45;;;12.90;;
22138;SDS011;25815;52.582;13.408;2023-02-03T08:23:08;21.13;;;13.48;;
22138;SDS011;25815;52.582;13.408;2023-02-03T08:25:34;20.02;;;12.10;;
22138;SDS011;25815;52.582;13.408;2023-02-03T08:28:00;19.92;;;12.40;;
22138;SDS011;25815;52.582;13.408;2023-02-03T08:30:26;20.77;;;11.68;;
22138;SDS011;25815;52.582;13.408;2023-02-03T08:32:52;17.13;;;11.75;;
22138;SDS011;25815;52.582;13.408;2023-02-03T08:35:18;18.95;;;9.95;;
22138;SDS011;25815;52.582;13.408;2023-02-03T08:37:44;16.40;;;10.07;;
22138;SDS011;25815;52.582;13.408;2023-02-03T08:40:10;18.38;;;12.15;;
22138;SDS011;25815;52.582;13.408;2023-02-03T08:42:36;18.73;;;11.82;;
22138;SDS011;25815;52.582;13.408;2023-02-03T08:45:02;15.52;;;10.00;;
22138;SDS011;25815;52.582;13.408;2023-02-03T08:47:28;15.50;;;10.82;;
22138;SDS011;25815;52.582;13.408;2023-02-03T08:49:54;18.38;;;11.25;;
22138;SDS011;25815;52.582;13.408;2023-02-03T08:52:20;17.65;;;11.18;;
22138;SDS011;25815;52.582;13.408;2023-02-03T08:54:46;17.45;;;11.13;;
22138;SDS011;25815;52.582;13.408;2023-02-03T08:57:12;16.77;;;11.18;;
22138;SDS011;25815;52.582;13.408;2023-02-03T08:59:39;19.88;;;10.20;;
22138;SDS011;25815;52.582;13.408;2023-02-03T09:02:06;14.88;;;10.02;;
22138;SDS011;25815;52.582;13.408;2023-02-03T09:04:33;16.85;;;9.88;;
22138;SDS011;25815;52.582;13.408;2023-02-03T09:06:59;15.55;;;9.45;;
22138;SDS011;25815;52.582;13.408;2023-02-03T09:09:27;15.18;;;9.20;;
22138;SDS011;25815;52.582;13.408;2023-02-03T09:11:53;15.93;;;9.82;;
22138;SDS011;25815;52.582;13.408;2023-02-03T09:14:24;14.65;;;8.38;;
22138;SDS011;25815;52.582;13.408;2023-02-03T09:16:51;12.55;;;8.02;;
22138;SDS011;25815;52.582;13.408;2023-02-03T09:19:17;13.77;;;8.35;;
22138;SDS011;25815;52.582;13.408;2023-02-03T09:21:43;16.10;;;7.72;;
22138;SDS011;25815;52.582;13.408;2023-02-03T09:24:09;14.20;;;8.43;;
22138;SDS011;25815;52.582;13.408;2023-02-03T09:26:35;12.90;;;8.25;;
22138;SDS011;25815;52.582;13.408;2023-02-03T09:29:01;14.93;;;8.35;;
22138;SDS011;25815;52.582;13.408;2023-02-03T09:31:27;10.80;;;7.30;;
22138;SDS011;25815;52.582;13.408;2023-02-03T09:33:53;11.00;;;6.25;;
22138;SDS011;25815;52.582;13.408;2023-02-03T09:36:19;9.90;;;6.72;;
22138;SDS011;25815;52.582;13.408;2023-02-03T09:38:45;9.20;;;6.55;;
22138;SDS011;25815;52.582;13.408;2023-02-03T09:41:27;9.38;;;6.80;;
22138;SDS011;25815;52.582;13.408;2023-02-03T09:46:43;9.00;;;6.25;;
22138;SDS011;25815;52.582;13.408;2023-02-03T09:49:15;9.65;;;6.30;;
22138;SDS011;25815;52.582;13.408;2023-02-03T09:51:43;7.72;;;5.75;;
22138;SDS011;25815;52.582;13.408;2023-02-03T09:56:42;8.25;;;5.95;;
22138;SDS011;25815;52.582;13.408;2023-02-03T09:59:16;10.00;;;6.15;;
22138;SDS011;25815;52.582;13.408;2023-02-03T10:01:56;9.63;;;5.57;;
22138;SDS011;25815;52.582;13.408;2023-02-03T10:04:34;9.55;;;5.07;;
22138;SDS011;25815;52.582;13.408;2023-02-03T10:07:11;10.00;;;5.88;;
22138;SDS011;25815;52.582;13.408;2023-02-03T10:15:10;12.20;;;4.38;;
22138;SDS011;25815;52.582;13.408;2023-02-03T10:17:38;8.23;;;5.38;;
22138;SDS011;25815;52.582;13.408;2023-02-03T10:22:33;5.63;;;3.65;;
22138;SDS011;25815;52.582;13.408;2023-02-03T10:25:14;6.15;;;3.03;;
22138;SDS011;25815;52.582;13.408;2023-02-03T10:27:41;6.55;;;3.60;;
22138;SDS011;25815;52.582;13.408;2023-02-03T10:35:49;4.25;;;1.50;;
22138;SDS011;25815;52.582;13.408;2023-02-03T10:38:18;4.20;;;1.58;;
22138;SDS011;25815;52.582;13.408;2023-02-03T10:40:46;3.90;;;1.25;;
22138;SDS011;25815;52.582;13.408;2023-02-03T10:43:12;5.55;;;0.82;;
22138;SDS011;25815;52.582;13.408;2023-02-03T10:45:57;6.03;;;1.48;;
22138;SDS011;25815;52.582;13.408;2023-02-03T10:48:23;7.75;;;1.10;;
22138;SDS011;25815;52.582;13.408;2023-02-03T10:50:50;9.45;;;1.67;;
22138;SDS011;25815;52.582;13.408;2023-02-03T10:55:43;7.75;;;1.20;;
22138;SDS011;25815;52.582;13.408;2023-02-03T10:58:13;9.48;;;1.50;;
22138;SDS011;25815;52.582;13.408;2023-02-03T11:00:41;10.32;;;1.55;;
22138;SDS011;25815;52.582;13.408;2023-02-03T11:03:22;11.07;;;1.48;;
22138;SDS011;25815;52.582;13.408;2023-02-03T11:06:02;17.10;;;2.03;;
22138;SDS011;25815;52.582;13.408;2023-02-03T11:08:29;7.43;;;1.27;;
22138;SDS011;25815;52.582;13.408;2023-02-03T11:11:00;17.23;;;2.35;;
22138;SDS011;25815;52.582;13.408;2023-02-03T11:13:26;12.20;;;1.45;;
22138;SDS011;25815;52.582;13.408;2023-02-03T11:20:56;8.82;;;1.30;;
22138;SDS011;25815;52.582;13.408;2023-02-03T11:23:23;11.00;;;1.38;;
22138;SDS011;25815;52.582;13.408;2023-02-03T11:25:49;9.10;;;1.33;;
22138;SDS011;25815;52.582;13.408;2023-02-03T11:28:15;13.82;;;1.88;;
22138;SDS011;25815;52.582;13.408;2023-02-03T11:30:41;11.60;;;2.35;;
22138;SDS011;25815;52.582;13.408;2023-02-03T11:33:17;12.43;;;1.58;;
22138;SDS011;25815;52.582;13.408;2023-02-03T11:36:05;13.48;;;2.08;;
22138;SDS011;25815;52.582;13.408;2023-02-03T11:38:32;18.13;;;2.22;;
22138;SDS011;25815;52.582;13.408;2023-02-03T11:41:00;15.55;;;2.13;;
22138;SDS011;25815;52.582;13.408;2023-02-03T11:43:27;14.18;;;1.98;;
22138;SDS011;25815;52.582;13.408;2023-02-03T11:45:53;16.98;;;2.10;;
22138;SDS011;25815;52.582;13.408;2023-02-03T11:50:59;22.55;;;1.83;;
22138;SDS011;25815;52.582;13.408;2023-02-03T11:56:07;20.30;;;2.25;;
22138;SDS011;25815;52.582;13.408;2023-02-03T11:58:45;14.23;;;2.33;;
22138;SDS011;25815;52.582;13.408;2023-02-03T12:09:32;16.80;;;2.25;;
22138;SDS011;25815;52.582;13.408;2023-02-03T12:12:16;14.95;;;2.08;;
22138;SDS011;25815;52.582;13.408;2023-02-03T12:14:53;23.35;;;2.70;;
22138;SDS011;25815;52.582;13.408;2023-02-03T12:17:33;19.30;;;3.15;;
22138;SDS011;25815;52.582;13.408;2023-02-03T12:28:05;22.90;;;3.50;;
22138;SDS011;25815;52.582;13.408;2023-02-03T12:30:36;26.92;;;3.63;;
22138;SDS011;25815;52.582;13.408;2023-02-03T12:33:07;20.83;;;3.00;;
22138;SDS011;25815;52.582;13.408;2023-02-03T12:35:42;21.05;;;3.45;;
22138;SDS011;25815;52.582;13.408;2023-02-03T12:38:12;26.98;;;3.38;;
22138;SDS011;25815;52.582;13.408;2023-02-03T12:45:53;33.40;;;3.72;;
22138;SDS011;25815;52.582;13.408;2023-02-03T12:48:28;22.55;;;3.80;;
22138;SDS011;25815;52.582;13.408;2023-02-03T12:50:55;8.43;;;1.17;;
22138;SDS011;25815;52.582;13.408;2023-02-03T12:53:30;7.97;;;1.23;;
22138;SDS011;25815;52.582;13.408;2023-02-03T12:56:00;11.25;;;1.25;;
22138;SDS011;25815;52.582;13.408;2023-02-03T12:58:30;12.45;;;1.73;;
22138;SDS011;25815;52.582;13.408;2023-02-03T13:01:04;14.73;;;1.75;;
22138;SDS011;25815;52.582;13.408;2023-02-03T13:03:40;16.05;;;1.95;;
22138;SDS011;25815;52.582;13.408;2023-02-03T13:06:12;14.45;;;1.40;;
22138;SDS011;25815;52.582;13.408;2023-02-03T13:13:59;15.48;;;1.50;;
22138;SDS011;25815;52.582;13.408;2023-02-03T13:16:28;11.40;;;1.38;;
22138;SDS011;25815;52.582;13.408;2023-02-03T13:18:57;11.80;;;1.53;;
22138;SDS011;25815;52.582;13.408;2023-02-03T13:21:25;18.58;;;3.15;;
22138;SDS011;25815;52.582;13.408;2023-02-03T13:23:51;23.40;;;2.55;;
22138;SDS011;25815;52.582;13.408;2023-02-03T13:33:57;18.70;;;2.42;;
22138;SDS011;25815;52.582;13.408;2023-02-03T13:41:54;20.63;;;2.08;;
22138;SDS011;25815;52.582;13.408;2023-02-03T13:44:24;12.55;;;2.05;;
22138;SDS011;25815;52.582;13.408;2023-02-03T13:46:55;18.75;;;1.85;;
22138;SDS011;25815;52.582;13.408;2023-02-03T13:49:29;13.13;;;2.13;;
22138;SDS011;25815;52.582;13.408;2023-02-03T13:51:55;19.85;;;2.22;;
22138;SDS011;25815;52.582;13.408;2023-02-03T13:54:25;24.63;;;2.30;;
22138;SDS011;25815;52.582;13.408;2023-02-03T13:56:53;15.70;;;2.90;;
22138;SDS011;25815;52.582;13.408;2023-02-03T14:12:38;24.13;;;3.50;;
22138;SDS011;25815;52.582;13.408;2023-02-03T14:15:21;33.47;;;3.83;;
22138;SDS011;25815;52.582;13.408;2023-02-03T14:22:58;28.90;;;3.50;;
22138;SDS011;25815;52.582;13.408;2023-02-03T14:25:25;26.55;;;3.17;;
22138;SDS011;25815;52.582;13.408;2023-02-03T14:27:58;31.83;;;4.10;;
22138;SDS011;25815;52.582;13.408;2023-02-03T14:30:25;24.65;;;3.25;;
22138;SDS011;25815;52.582;13.408;2023-02-03T14:32:54;29.88;;;4.55;;
22138;SDS011;25815;52.582;13.408;2023-02-03T14:35:35;26.17;;;3.85;;
22138;SDS011;25815;52.582;13.408;2023-02-03T14:38:05;23.77;;;3.08;;
22138;SDS011;25815;52.582;13.408;2023-02-03T14:40:49;21.08;;;3.60;;
22138;SDS011;25815;52.582;13.408;2023-02-03T14:53:45;21.10;;;3.20;;
22138;SDS011;25815;52.582;13.408;2023-02-03T14:58:44;34.25;;;4.78;;
22138;SDS011;25815;52.582;13.408;2023-02-03T15:02:07;29.33;;;5.18;;
22138;SDS011;25815;52.582;13.408;2023-02-03T15:06:39;33.60;;;3.72;;
22138;SDS011;25815;52.582;13.408;2023-02-03T15:11:51;25.73;;;4.03;;
22138;SDS011;25815;52.582;13.408;2023-02-03T15:14:20;28.67;;;4.90;;
22138;SDS011;25815;52.582;13.408;2023-02-03T15:16:47;26.88;;;3.83;;
22138;SDS011;25815;52.582;13.408;2023-02-03T15:19:16;29.30;;;4.63;;
22138;SDS011;25815;52.582;13.408;2023-02-03T15:21:42;19.05;;;3.20;;
22138;SDS011;25815;52.582;13.408;2023-02-03T15:24:13;26.15;;;4.35;;
22138;SDS011;25815;52.582;13.408;2023-02-03T15:26:44;25.20;;;3.47;;
22138;SDS011;25815;52.582;13.408;2023-02-03T15:29:16;27.13;;;4.53;;
22138;SDS011;25815;52.582;13.408;2023-02-03T15:31:45;23.85;;;3.92;;
22138;SDS011;25815;52.582;13.408;2023-02-03T15:34:28;24.48;;;3.67;;
22138;SDS011;25815;52.582;13.408;2023-02-03T15:36:55;21.83;;;3.88;;
22138;SDS011;25815;52.582;13.408;2023-02-03T15:39:36;26.50;;;4.07;;
22138;SDS011;25815;52.582;13.408;2023-02-03T15:42:07;16.98;;;2.50;;
22138;SDS011;25815;52.582;13.408;2023-02-03T15:44:36;18.77;;;3.33;;
22138;SDS011;25815;52.582;13.408;2023-02-03T15:47:04;17.27;;;2.45;;
22138;SDS011;25815;52.582;13.408;2023-02-03T15:49:33;15.57;;;2.20;;
22138;SDS011;25815;52.582;13.408;2023-02-03T15:52:10;24.55;;;3.10;;
22138;SDS011;25815;52.582;13.408;2023-02-03T15:54:42;20.60;;;3.42;;
22138;SDS011;25815;52.582;13.408;2023-02-03T15:57:20;20.75;;;2.80;;
22138;SDS011;25815;52.582;13.408;2023-02-03T15:59:52;15.07;;;2.40;;
22138;SDS011;25815;52.582;13.408;2023-02-03T16:04:46;24.95;;;3.53;;
22138;SDS011;25815;52.582;13.408;2023-02-03T16:07:20;16.50;;;2.83;;
22138;SDS011;25815;52.582;13.408;2023-02-03T16:09:50;13.93;;;2.22;;
22138;SDS011;25815;52.582;13.408;2023-02-03T16:14:43;24.70;;;2.63;;
22138;SDS011;25815;52.582;13.408;2023-02-03T16:22:39;17.38;;;2.92;;
22138;SDS011;25815;52.582;13.408;2023-02-03T16:25:19;20.90;;;3.25;;
22138;SDS011;25815;52.582;13.408;2023-02-03T16:27:55;19.60;;;2.80;;
22138;SDS011;25815;52.582;13.408;2023-02-03T16:30:50;25.42;;;3.63;;
22138;SDS011;25815;52.582;13.408;2023-02-03T16:33:35;26.58;;;3.60;;
22138;SDS011;25815;52.582;13.408;2023-02-03T16:36:20;20.70;;;3.15;;
22138;SDS011;25815;52.582;13.408;2023-02-03T16:39:07;28.58;;;4.20;;
22138;SDS011;25815;52.582;13.408;2023-02-03T16:41:53;22.07;;;3.33;;
22138;SDS011;25815;52.582;13.408;2023-02-03T16:44:38;20.98;;;3.10;;
22138;SDS011;25815;52.582;13.408;2023-02-03T16:47:23;19.67;;;2.92;;
22138;SDS011;25815;52.582;13.408;2023-02-03T16:50:16;21.00;;;3.60;;
22138;SDS011;25815;52.582;13.408;2023-02-03T16:53:02;24.40;;;3.80;;